createdAt,value
2023-01-17T00:01:13.372Z,2.22
2023-01-17T00:03:58.607Z,2.30
2023-01-17T00:06:44.287Z,2.53
2023-01-17T00:09:31.191Z,2.55
2023-01-17T00:11:58.553Z,2.60
2023-01-17T00:14:25.441Z,2.72
2023-01-17T00:16:51.873Z,2.20
2023-01-17T00:19:36.669Z,2.80
2023-01-17T00:22:28.585Z,3.22
2023-01-17T00:25:13.503Z,2.30
2023-01-17T00:27:39.955Z,2.67
2023-01-17T00:30:07.802Z,2.92
2023-01-17T00:32:34.216Z,2.50
2023-01-17T00:35:00.635Z,2.80
2023-01-17T00:37:27.033Z,2.92
2023-01-17T00:39:53.448Z,2.95
2023-01-17T00:42:19.815Z,2.38
2023-01-17T00:45:04.677Z,2.80
2023-01-17T00:47:49.608Z,2.80
2023-01-17T00:50:34.530Z,2.70
2023-01-17T00:53:23.512Z,3.05
2023-01-17T00:56:08.337Z,2.70
2023-01-17T00:58:53.579Z,3.03
2023-01-17T01:01:38.649Z,2.35
2023-01-17T01:04:23.874Z,2.67
2023-01-17T01:07:08.767Z,3.15
2023-01-17T01:09:53.598Z,2.78
2023-01-17T01:12:38.520Z,2.90
2023-01-17T01:15:24.222Z,2.60
2023-01-17T01:18:09.050Z,2.63
2023-01-17T01:20:54.061Z,2.55
2023-01-17T01:23:38.919Z,2.78
2023-01-17T01:26:23.739Z,3.25
2023-01-17T01:29:08.473Z,2.70
2023-01-17T01:31:53.518Z,2.70
2023-01-17T01:34:20.001Z,2.72
2023-01-17T01:36:46.437Z,2.90
2023-01-17T01:39:12.864Z,2.78
2023-01-17T01:41:39.756Z,3.50
2023-01-17T01:44:41.088Z,3.03
2023-01-17T01:47:10.741Z,3.17
2023-01-17T01:49:38.054Z,3.17
2023-01-17T01:52:07.778Z,3.25
2023-01-17T01:54:44.532Z,2.67
2023-01-17T01:57:15.784Z,3.08
2023-01-17T01:59:48.912Z,2.80
2023-01-17T02:02:15.829Z,2.80
2023-01-17T03:45:38.348Z,3.20
2023-01-17T03:48:06.176Z,2.67
2023-01-17T03:50:32.664Z,3.00
2023-01-17T03:52:59.156Z,3.03
2023-01-17T03:55:25.698Z,3.55
2023-01-17T03:57:52.206Z,3.42
2023-01-17T04:00:18.971Z,3.28
2023-01-17T04:02:45.547Z,2.90
2023-01-17T04:05:12.147Z,4.15
2023-01-17T04:07:38.563Z,3.92
2023-01-17T04:10:05.767Z,3.45
2023-01-17T04:12:32.280Z,2.85
2023-01-17T04:14:58.732Z,3.03
2023-01-17T04:17:25.253Z,3.10
2023-01-17T04:19:51.814Z,3.55
2023-01-17T04:22:18.245Z,3.30
2023-01-17T04:24:45.562Z,3.72
2023-01-17T04:27:14.214Z,2.58
2023-01-17T04:29:40.735Z,3.08
2023-01-17T04:32:07.310Z,3.60
2023-01-17T04:34:33.759Z,3.80
2023-01-17T04:37:00.186Z,3.40
2023-01-17T04:39:26.666Z,3.10
2023-01-17T04:41:53.131Z,3.08
2023-01-17T04:44:19.618Z,3.30
2023-01-17T04:46:46.089Z,3.53
2023-01-17T04:49:12.575Z,2.70
2023-01-17T04:51:39.039Z,3.45
2023-01-17T04:54:05.509Z,3.33
2023-01-17T04:56:31.994Z,3.30
2023-01-17T04:58:58.596Z,3.08
2023-01-17T05:01:25.736Z,3.63
2023-01-17T05:03:52.388Z,3.38
2023-01-17T05:06:18.879Z,3.40
2023-01-17T05:08:45.341Z,3.80
2023-01-17T05:11:11.809Z,3.75
2023-01-17T05:13:38.291Z,3.50
2023-01-17T05:16:04.965Z,3.47
2023-01-17T05:18:31.505Z,3.28
2023-01-17T05:21:04.830Z,3.92
2023-01-17T05:23:32.911Z,3.40
2023-01-17T05:25:59.468Z,4.30
2023-01-17T05:28:25.947Z,3.70
2023-01-17T05:30:52.452Z,3.58
2023-01-17T05:33:18.944Z,3.33
2023-01-17T05:35:45.381Z,3.50
2023-01-17T05:38:11.802Z,3.97
2023-01-17T05:40:38.403Z,3.65
2023-01-17T05:43:05.109Z,3.40
2023-01-17T05:45:33.331Z,3.47
2023-01-17T05:48:00.475Z,3.55
2023-01-17T05:50:33.346Z,3.58
2023-01-17T05:53:02.809Z,4.15
2023-01-17T05:55:31.107Z,3.50
2023-01-17T05:57:58.212Z,3.90
2023-01-17T06:00:25.273Z,3.83
2023-01-17T06:02:56.398Z,3.83
2023-01-17T06:05:24.110Z,3.85
2023-01-17T06:07:50.988Z,3.53
2023-01-17T06:10:19.935Z,3.58
2023-01-17T06:12:47.060Z,4.10
2023-01-17T06:15:15.305Z,4.15
2023-01-17T06:17:42.159Z,4.47
2023-01-17T06:20:11.093Z,4.70
2023-01-17T06:22:37.603Z,4.70
2023-01-17T06:25:04.449Z,4.50
2023-01-17T06:27:30.885Z,4.57
2023-01-17T06:29:57.394Z,5.10
2023-01-17T06:32:23.871Z,4.93
2023-01-17T06:34:50.336Z,4.32
2023-01-17T06:37:16.915Z,4.82
2023-01-17T06:39:43.463Z,5.20
2023-01-17T06:42:09.957Z,5.03
2023-01-17T06:44:36.391Z,4.90
2023-01-17T06:47:03.077Z,4.10
2023-01-17T06:49:29.509Z,4.93
2023-01-17T06:51:55.936Z,5.07
2023-01-17T06:54:22.495Z,4.88
2023-01-17T06:56:48.923Z,4.97
2023-01-17T06:59:15.352Z,4.70
2023-01-17T07:01:41.966Z,8.02
2023-01-17T07:04:08.571Z,6.43
2023-01-17T07:06:36.353Z,4.72
2023-01-17T07:09:04.132Z,5.90
2023-01-17T07:11:31.161Z,4.75
2023-01-17T07:13:57.639Z,4.20
2023-01-17T07:16:24.334Z,6.35
2023-01-17T07:18:51.731Z,4.80
2023-01-17T07:21:18.579Z,4.70
2023-01-17T07:23:45.094Z,4.88
2023-01-17T07:26:11.564Z,4.93
2023-01-17T07:28:37.998Z,4.72
2023-01-17T07:31:07.001Z,5.25
2023-01-17T07:33:33.720Z,4.68
2023-01-17T07:36:04.118Z,4.97
2023-01-17T07:38:30.580Z,6.43
2023-01-17T07:41:00.516Z,5.53
2023-01-17T07:43:27.224Z,4.68
2023-01-17T07:45:54.170Z,4.60
2023-01-17T07:48:23.478Z,4.40
2023-01-17T07:50:54.740Z,4.70
2023-01-17T07:53:25.959Z,4.10
2023-01-17T07:55:52.774Z,4.68
2023-01-17T07:58:19.697Z,4.57
2023-01-17T08:00:46.721Z,4.75
2023-01-17T08:03:15.927Z,4.15
2023-01-17T08:05:43.798Z,4.18
2023-01-17T08:08:10.338Z,4.47
2023-01-17T08:10:36.877Z,4.60
2023-01-17T08:13:03.421Z,5.03
2023-01-17T08:15:29.931Z,4.25
2023-01-17T08:17:58.510Z,4.47
2023-01-17T08:20:27.829Z,4.80
2023-01-17T08:22:56.627Z,4.70
2023-01-17T08:25:24.959Z,4.32
2023-01-17T08:27:51.980Z,4.15
2023-01-17T08:30:18.862Z,5.15
2023-01-17T08:32:45.388Z,4.20
2023-01-17T08:35:11.814Z,4.45
2023-01-17T08:37:38.966Z,4.40
2023-01-17T08:40:06.931Z,4.95
2023-01-17T08:42:39.326Z,4.95
2023-01-17T08:45:08.029Z,4.13
2023-01-17T08:47:35.139Z,4.85
2023-01-17T08:50:01.910Z,4.93
2023-01-17T08:52:29.135Z,4.85
2023-01-17T08:54:55.682Z,5.07
2023-01-17T08:57:22.523Z,5.00
2023-01-17T08:59:49.094Z,4.00
2023-01-17T09:02:17.196Z,3.70
2023-01-17T09:04:45.183Z,4.40
2023-01-17T09:07:11.742Z,4.38
2023-01-17T09:09:38.316Z,4.35
2023-01-17T09:12:05.031Z,3.97
2023-01-17T09:14:31.490Z,4.35
2023-01-17T09:16:58.184Z,4.05
2023-01-17T09:19:24.846Z,3.80
2023-01-17T09:21:51.315Z,4.07
2023-01-17T09:24:18.035Z,4.35
2023-01-17T09:26:44.899Z,4.38
2023-01-17T09:29:13.546Z,3.88
2023-01-17T09:31:41.541Z,4.43
2023-01-17T09:34:08.488Z,4.45
2023-01-17T09:36:35.102Z,4.40
2023-01-17T09:39:02.503Z,4.43
2023-01-17T09:41:35.283Z,4.40
2023-01-17T09:44:39.003Z,4.22
2023-01-17T09:47:40.490Z,4.32
2023-01-17T09:50:37.563Z,5.57
2023-01-17T09:53:16.867Z,4.20
2023-01-17T09:55:48.669Z,4.15
2023-01-17T09:58:32.002Z,3.92
2023-01-17T10:01:17.363Z,3.55
2023-01-17T10:04:08.179Z,3.95
2023-01-17T10:06:46.856Z,3.67
2023-01-17T10:09:38.159Z,4.05
2023-01-17T10:12:28.676Z,3.83
2023-01-17T10:15:17.727Z,3.22
2023-01-17T10:18:16.597Z,3.42
2023-01-17T10:21:16.643Z,4.28
2023-01-17T10:26:17.681Z,3.95
2023-01-17T10:28:48.690Z,3.75
2023-01-17T10:31:24.173Z,3.70
2023-01-17T10:33:55.682Z,3.15
2023-01-17T10:36:25.552Z,3.50
2023-01-17T10:38:55.097Z,3.00
2023-01-17T10:41:26.739Z,3.38
2023-01-17T10:44:20.656Z,3.00
2023-01-17T10:46:53.301Z,3.00
2023-01-17T10:49:22.506Z,2.97
2023-01-17T10:52:12.216Z,3.38
2023-01-17T10:54:59.066Z,3.35
2023-01-17T10:57:27.869Z,3.33
2023-01-17T10:59:59.699Z,3.25
2023-01-17T11:02:31.450Z,2.45
2023-01-17T11:05:03.376Z,2.67
2023-01-17T11:07:29.912Z,3.20
2023-01-17T11:09:57.974Z,2.70
2023-01-17T11:12:30.517Z,2.90
2023-01-17T11:15:10.609Z,2.83
2023-01-17T11:17:41.301Z,2.50
2023-01-17T11:20:33.202Z,2.97
2023-01-17T11:23:16.381Z,2.70
2023-01-17T11:25:58.350Z,3.05
2023-01-17T11:28:30.141Z,2.78
2023-01-17T11:31:03.534Z,2.55
2023-01-17T11:33:45.903Z,2.75
2023-01-17T11:36:24.688Z,2.35
2023-01-17T11:39:27.518Z,2.83
2023-01-17T11:41:54.491Z,2.22
2023-01-17T11:44:32.400Z,2.00
2023-01-17T11:47:13.883Z,2.30
2023-01-17T11:49:42.361Z,3.03
2023-01-17T11:52:23.422Z,2.00
2023-01-17T11:54:51.429Z,3.42
2023-01-17T11:57:30.706Z,3.33
2023-01-17T12:00:11.605Z,1.95
2023-01-17T12:02:43.751Z,1.63
2023-01-17T12:05:31.999Z,1.95
2023-01-17T12:08:16.679Z,2.70
2023-01-17T12:10:55.264Z,2.42
2023-01-17T12:13:43.427Z,2.08
2023-01-17T12:16:31.320Z,2.75
2023-01-17T12:19:06.545Z,2.00
2023-01-17T12:21:49.969Z,2.03
2023-01-17T12:24:39.369Z,2.03
2023-01-17T12:27:25.182Z,2.72
2023-01-17T12:29:58.766Z,2.13
2023-01-17T12:32:40.399Z,1.75
2023-01-17T12:35:20.929Z,2.00
2023-01-17T12:38:03.954Z,1.85
2023-01-17T12:40:38.029Z,2.00
2023-01-17T12:43:55.870Z,2.05
2023-01-17T12:46:33.919Z,1.88
2023-01-17T12:49:16.467Z,1.92
2023-01-17T12:51:47.376Z,1.80
2023-01-17T12:54:37.971Z,2.15
2023-01-17T12:57:32.031Z,1.80
2023-01-17T13:00:07.368Z,3.83
2023-01-17T13:03:05.723Z,3.13
2023-01-17T13:05:41.811Z,2.80
2023-01-17T13:08:26.383Z,2.90
2023-01-17T13:11:02.279Z,2.47
2023-01-17T13:13:30.630Z,3.20
2023-01-17T13:16:11.215Z,3.40
2023-01-17T13:18:45.044Z,1.90
2023-01-17T13:21:23.308Z,2.10
2023-01-17T13:24:08.040Z,2.00
2023-01-17T13:26:55.990Z,2.25
2023-01-17T13:29:48.591Z,2.10
2023-01-17T13:32:48.590Z,2.30
2023-01-17T13:35:21.084Z,2.10
2023-01-17T13:38:03.816Z,2.45
2023-01-17T13:40:58.353Z,2.13
2023-01-17T13:43:28.323Z,2.35
2023-01-17T13:46:00.207Z,2.17
2023-01-17T13:48:30.089Z,1.90
2023-01-17T13:50:58.981Z,2.20
2023-01-17T13:53:34.427Z,2.00
2023-01-17T13:56:19.303Z,1.80
2023-01-17T13:58:54.353Z,1.92
2023-01-17T14:01:23.969Z,2.17
2023-01-17T14:03:50.695Z,1.92
2023-01-17T14:06:41.229Z,1.80
2023-01-17T14:09:07.634Z,2.08
2023-01-17T14:11:35.981Z,2.72
2023-01-17T14:14:39.775Z,2.38
2023-01-17T14:17:29.149Z,6.10
2023-01-17T14:20:09.857Z,6.22
2023-01-17T14:22:41.067Z,2.83
2023-01-17T14:25:14.956Z,2.75
2023-01-17T14:27:53.486Z,3.38
2023-01-17T14:30:25.650Z,2.80
2023-01-17T14:33:01.287Z,3.38
2023-01-17T14:35:36.774Z,3.30
2023-01-17T14:38:15.970Z,3.33
2023-01-17T14:40:58.583Z,2.85
2023-01-17T14:43:28.541Z,4.15
2023-01-17T14:46:06.738Z,2.80
2023-01-17T14:48:33.749Z,3.47
2023-01-17T14:51:01.117Z,3.30
2023-01-17T14:53:31.806Z,3.08
2023-01-17T14:56:12.063Z,2.83
2023-01-17T14:58:39.450Z,3.55
2023-01-17T15:01:18.404Z,3.33
2023-01-17T15:03:48.170Z,3.50
2023-01-17T15:06:21.623Z,3.20
2023-01-17T15:08:48.959Z,3.17
2023-01-17T15:11:23.833Z,2.72
2023-01-17T15:13:54.753Z,3.17
2023-01-17T15:16:29.667Z,3.65
2023-01-17T15:18:57.216Z,3.17
2023-01-17T15:21:29.713Z,3.90
2023-01-17T15:24:26.641Z,3.40
2023-01-17T15:26:53.374Z,3.45
2023-01-17T15:29:25.274Z,3.55
2023-01-17T15:32:00.457Z,3.08
2023-01-17T15:34:38.576Z,3.25
2023-01-17T15:37:21.430Z,4.85
2023-01-17T15:39:48.397Z,5.25
2023-01-17T15:42:31.347Z,15.38
2023-01-17T15:45:04.204Z,7.57
2023-01-17T15:47:33.848Z,6.70
2023-01-17T15:50:02.477Z,6.05
2023-01-17T15:52:29.222Z,6.22
2023-01-17T15:55:14.584Z,5.82
2023-01-17T15:57:47.418Z,5.65
2023-01-17T16:00:18.459Z,6.05
2023-01-17T16:02:55.777Z,7.10
2023-01-17T16:05:22.829Z,6.45
2023-01-17T16:08:01.766Z,7.32
2023-01-17T16:10:31.784Z,6.78
2023-01-17T16:12:59.479Z,7.90
2023-01-17T16:15:27.223Z,7.28
2023-01-17T16:18:17.745Z,7.97
2023-01-17T16:20:56.781Z,7.40
2023-01-17T16:23:23.281Z,7.18
2023-01-17T16:25:49.726Z,7.32
2023-01-17T16:28:16.408Z,7.55
2023-01-17T16:30:44.438Z,7.50
2023-01-17T16:33:13.207Z,7.30
2023-01-17T16:35:40.263Z,6.40
2023-01-17T16:38:10.145Z,7.00
2023-01-17T16:40:43.837Z,6.47
2023-01-17T16:43:12.079Z,7.07
2023-01-17T16:45:50.317Z,6.88
2023-01-17T16:48:19.180Z,25.20
2023-01-17T16:50:49.601Z,15.65
2023-01-17T16:53:26.996Z,7.07
2023-01-17T16:55:58.888Z,6.47
2023-01-17T16:58:25.683Z,6.93
2023-01-17T17:00:52.360Z,6.75
2023-01-17T17:03:20.767Z,15.20
2023-01-17T17:05:56.258Z,8.70
2023-01-17T17:08:23.999Z,7.53
2023-01-17T17:10:50.561Z,6.85
2023-01-17T17:13:17.026Z,6.00
2023-01-17T17:15:43.904Z,7.35
2023-01-17T17:18:15.220Z,7.80
2023-01-17T17:20:42.071Z,6.70
2023-01-17T17:23:09.930Z,7.43
2023-01-17T17:25:37.075Z,8.98
2023-01-17T17:28:05.408Z,11.68
2023-01-17T17:30:31.971Z,23.67
2023-01-17T17:32:58.425Z,10.98
2023-01-17T17:35:24.947Z,6.90
2023-01-17T17:37:51.643Z,8.38
2023-01-17T17:40:18.174Z,9.48
2023-01-17T17:42:44.639Z,9.57
2023-01-17T17:45:11.285Z,7.55
2023-01-17T17:47:37.724Z,7.85
2023-01-17T17:50:04.474Z,8.45
2023-01-17T17:52:32.321Z,7.28
2023-01-17T17:54:58.869Z,8.52
2023-01-17T17:57:25.342Z,7.65
2023-01-17T17:59:51.956Z,7.25
2023-01-17T18:02:18.476Z,7.82
2023-01-17T18:04:44.967Z,7.85
2023-01-17T18:07:11.596Z,7.57
2023-01-17T18:09:39.224Z,14.38
2023-01-17T18:12:05.852Z,8.65
2023-01-17T18:14:32.350Z,39.17
2023-01-17T18:16:58.879Z,29.67
2023-01-17T18:19:26.472Z,9.68
2023-01-17T18:21:53.552Z,9.35
2023-01-17T18:24:22.865Z,8.45
2023-01-17T18:26:57.527Z,7.35
2023-01-17T18:29:25.500Z,7.90
2023-01-17T18:31:53.905Z,6.88
2023-01-17T18:34:28.981Z,7.05
2023-01-17T18:36:55.964Z,6.45
2023-01-17T18:39:28.484Z,6.50
2023-01-17T18:41:55.341Z,6.18
2023-01-17T18:44:22.568Z,5.43
2023-01-17T18:46:50.675Z,7.15
2023-01-17T18:49:19.227Z,6.68
2023-01-17T18:51:48.964Z,6.60
2023-01-17T18:54:15.828Z,6.80
2023-01-17T18:56:42.606Z,6.85
2023-01-17T18:59:12.237Z,7.10
2023-01-17T19:01:42.135Z,6.72
2023-01-17T19:04:10.142Z,7.07
2023-01-17T19:06:39.970Z,7.07
2023-01-17T19:09:08.198Z,7.30
2023-01-17T19:11:36.576Z,6.82
2023-01-17T19:14:03.648Z,8.02
2023-01-17T19:16:32.992Z,8.60
2023-01-17T19:19:05.594Z,9.13
2023-01-17T19:21:33.065Z,9.07
2023-01-17T19:24:00.066Z,9.15
2023-01-17T19:26:27.486Z,9.82
2023-01-17T19:28:56.227Z,10.70
2023-01-17T19:31:25.665Z,9.45
2023-01-17T19:33:54.195Z,8.77
2023-01-17T19:36:24.200Z,8.93
2023-01-17T19:39:03.428Z,11.07
2023-01-17T19:41:32.938Z,8.40
2023-01-17T19:44:02.270Z,11.57
2023-01-17T19:46:29.449Z,7.70
2023-01-17T19:48:57.076Z,8.70
2023-01-17T19:51:24.459Z,8.52
2023-01-17T19:53:51.246Z,7.97
2023-01-17T19:56:20.111Z,6.65
2023-01-17T19:58:47.242Z,6.25
2023-01-17T20:01:15.837Z,6.53
2023-01-17T20:03:46.120Z,6.20
2023-01-17T20:06:14.514Z,7.55
2023-01-17T20:08:41.476Z,7.60
2023-01-17T20:11:10.779Z,7.47
2023-01-17T20:13:37.399Z,6.85
2023-01-17T20:16:09.068Z,7.20
2023-01-17T20:18:36.176Z,7.45
2023-01-17T20:21:08.623Z,6.55
2023-01-17T20:23:36.674Z,6.32
2023-01-17T20:26:03.495Z,7.20
2023-01-17T20:28:35.021Z,8.35
2023-01-17T20:31:16.001Z,8.32
2023-01-17T20:33:44.609Z,8.05
2023-01-17T20:36:14.807Z,9.30
2023-01-17T20:38:44.611Z,9.73
2023-01-17T20:41:16.204Z,7.50
2023-01-17T20:43:44.839Z,9.43
2023-01-17T20:46:12.253Z,10.50
2023-01-17T20:48:44.910Z,10.65
2023-01-17T20:51:11.853Z,11.50
2023-01-17T20:53:40.818Z,11.35
2023-01-17T20:56:08.757Z,8.75
2023-01-17T20:58:35.690Z,9.18
2023-01-17T21:01:02.366Z,10.02
2023-01-17T21:03:29.332Z,9.73
2023-01-17T21:06:07.727Z,9.98
2023-01-17T21:08:39.322Z,8.13
2023-01-17T21:11:06.786Z,9.25
2023-01-17T21:13:33.823Z,7.90
2023-01-17T21:16:00.740Z,7.68
2023-01-17T21:18:31.586Z,7.18
2023-01-17T21:21:10.546Z,6.60
2023-01-17T21:23:38.698Z,6.75
2023-01-17T21:26:06.523Z,7.28
2023-01-17T21:28:35.492Z,6.43
2023-01-17T21:31:17.924Z,6.60
2023-01-17T21:33:44.420Z,7.85
2023-01-17T21:36:11.441Z,6.68
2023-01-17T21:38:38.829Z,6.97
2023-01-17T21:41:05.495Z,6.50
2023-01-17T21:43:32.017Z,6.50
2023-01-17T21:46:02.701Z,5.95
2023-01-17T21:48:29.195Z,5.75
2023-01-17T21:50:55.712Z,5.35
2023-01-17T21:53:22.172Z,6.00
2023-01-17T21:56:07.300Z,6.47
2023-01-17T21:58:45.683Z,6.50
2023-01-17T22:01:22.309Z,7.05
2023-01-17T22:04:12.523Z,7.07
2023-01-17T22:06:39.378Z,6.53
2023-01-17T22:09:06.107Z,7.38
2023-01-17T22:11:32.902Z,6.85
2023-01-17T22:13:59.595Z,7.35
2023-01-17T22:16:26.262Z,8.52
2023-01-17T22:18:52.888Z,8.77
2023-01-17T22:21:24.726Z,8.98
2023-01-17T22:23:56.735Z,9.93
2023-01-17T22:26:26.081Z,8.70
2023-01-17T22:28:52.976Z,8.18
2023-01-17T22:31:22.828Z,8.05
2023-01-17T22:34:00.213Z,7.35
2023-01-17T22:36:27.704Z,8.27
2023-01-17T22:38:54.447Z,12.07
2023-01-17T22:41:24.888Z,11.20
2023-01-17T22:43:53.449Z,7.03
2023-01-17T22:46:22.864Z,8.40
2023-01-17T22:48:49.760Z,8.93
2023-01-17T22:51:18.432Z,7.07
2023-01-17T22:53:47.891Z,4.85
2023-01-17T22:56:19.713Z,4.22
2023-01-17T22:58:48.594Z,4.78
2023-01-17T23:01:26.393Z,6.18
2023-01-17T23:04:03.506Z,5.13
2023-01-17T23:06:34.011Z,5.30
2023-01-17T23:09:05.167Z,5.13
2023-01-17T23:11:43.846Z,6.05
2023-01-17T23:14:13.485Z,6.40
2023-01-17T23:17:03.388Z,6.38
2023-01-17T23:19:35.997Z,6.13
2023-01-17T23:22:16.308Z,6.00
2023-01-17T23:24:45.594Z,5.22
2023-01-17T23:27:35.213Z,6.32
2023-01-17T23:30:04.703Z,5.97
2023-01-17T23:32:31.269Z,6.15
2023-01-17T23:34:57.742Z,7.45
2023-01-17T23:37:47.350Z,5.78
2023-01-17T23:40:14.758Z,5.88
2023-01-17T23:43:00.525Z,6.30
2023-01-17T23:45:27.332Z,5.60
2023-01-17T23:47:53.854Z,6.18
2023-01-17T23:50:20.363Z,6.53
2023-01-17T23:52:46.849Z,6.43
2023-01-17T23:55:13.666Z,6.35
2023-01-17T23:57:40.139Z,6.13
